Terminal Aerodrome Forecast
Issued by NWS

Home | Current Version | Previous Version | Text Only | Print | Product List | Glossary On
Versions: 1 2 3 4 5 6 7 8 9 10 11 12
000
FTUS46 KHNX 161100
TAFBFL
TAF
KBFL 161129Z 1612/1712 VRB03KT P6SM SKC
     FM161900 30009KT P6SM SKC
      TEMPO 1621/1701 32012G19KT
     FM170300 35006KT P6SM SKC
     FM170600 07004KT P6SM SKC=

USA.gov is the U.S. government's official web portal to all federal, state and local government web resources and services.